sensor_id;sensor_type;location;lat;lon;timestamp;P1;durP1;ratioP1;P2;durP2;ratioP2
70052;SDS011;57398;52.032;4.376;2023-07-30T00:02:42;9.15;;;1.70;;
70052;SDS011;57398;52.032;4.376;2023-07-30T00:05:33;12.40;;;1.83;;
70052;SDS011;57398;52.032;4.376;2023-07-30T00:08:21;11.15;;;2.05;;
70052;SDS011;57398;52.032;4.376;2023-07-30T00:11:10;10.60;;;1.60;;
70052;SDS011;57398;52.032;4.376;2023-07-30T00:14:00;6.90;;;1.38;;
70052;SDS011;57398;52.032;4.376;2023-07-30T00:16:48;6.03;;;1.45;;
70052;SDS011;57398;52.032;4.376;2023-07-30T00:19:36;7.63;;;1.48;;
70052;SDS011;57398;52.032;4.376;2023-07-30T00:22:25;8.57;;;1.58;;
70052;SDS011;57398;52.032;4.376;2023-07-30T00:25:13;9.60;;;1.77;;
70052;SDS011;57398;52.032;4.376;2023-07-30T00:28:01;8.25;;;1.55;;
70052;SDS011;57398;52.032;4.376;2023-07-30T00:30:51;10.70;;;2.13;;
70052;SDS011;57398;52.032;4.376;2023-07-30T00:33:39;6.93;;;1.40;;
70052;SDS011;57398;52.032;4.376;2023-07-30T00:36:27;7.95;;;1.67;;
70052;SDS011;57398;52.032;4.376;2023-07-30T00:39:15;8.47;;;1.80;;
70052;SDS011;57398;52.032;4.376;2023-07-30T00:42:04;8.77;;;1.90;;
70052;SDS011;57398;52.032;4.376;2023-07-30T00:44:53;8.05;;;1.83;;
70052;SDS011;57398;52.032;4.376;2023-07-30T00:47:42;6.18;;;1.40;;
70052;SDS011;57398;52.032;4.376;2023-07-30T00:50:31;9.05;;;1.45;;
70052;SDS011;57398;52.032;4.376;2023-07-30T00:53:20;8.63;;;1.50;;
70052;SDS011;57398;52.032;4.376;2023-07-30T00:56:09;7.53;;;1.35;;
70052;SDS011;57398;52.032;4.376;2023-07-30T00:58:57;11.00;;;1.80;;
70052;SDS011;57398;52.032;4.376;2023-07-30T01:01:46;9.98;;;1.60;;
70052;SDS011;57398;52.032;4.376;2023-07-30T01:04:40;9.65;;;1.50;;
70052;SDS011;57398;52.032;4.376;2023-07-30T01:07:31;9.97;;;1.57;;
70052;SDS011;57398;52.032;4.376;2023-07-30T01:10:19;8.27;;;1.58;;
70052;SDS011;57398;52.032;4.376;2023-07-30T01:13:09;9.60;;;1.52;;
70052;SDS011;57398;52.032;4.376;2023-07-30T01:15:58;9.95;;;1.50;;
70052;SDS011;57398;52.032;4.376;2023-07-30T01:18:46;6.35;;;1.30;;
70052;SDS011;57398;52.032;4.376;2023-07-30T01:21:36;8.73;;;1.50;;
70052;SDS011;57398;52.032;4.376;2023-07-30T01:24:25;7.60;;;1.60;;
70052;SDS011;57398;52.032;4.376;2023-07-30T01:27:14;7.95;;;1.67;;
70052;SDS011;57398;52.032;4.376;2023-07-30T01:30:09;7.35;;;1.55;;
70052;SDS011;57398;52.032;4.376;2023-07-30T01:33:02;7.00;;;1.23;;
70052;SDS011;57398;52.032;4.376;2023-07-30T01:35:52;7.60;;;1.77;;
70052;SDS011;57398;52.032;4.376;2023-07-30T01:38:44;6.65;;;1.63;;
70052;SDS011;57398;52.032;4.376;2023-07-30T01:41:33;8.13;;;1.40;;
70052;SDS011;57398;52.032;4.376;2023-07-30T01:44:22;9.88;;;1.55;;
70052;SDS011;57398;52.032;4.376;2023-07-30T01:47:10;7.95;;;1.50;;
70052;SDS011;57398;52.032;4.376;2023-07-30T01:49:58;15.83;;;1.87;;
70052;SDS011;57398;52.032;4.376;2023-07-30T01:52:47;9.00;;;1.23;;
70052;SDS011;57398;52.032;4.376;2023-07-30T01:55:37;8.18;;;1.50;;
70052;SDS011;57398;52.032;4.376;2023-07-30T01:58:26;10.05;;;1.60;;
70052;SDS011;57398;52.032;4.376;2023-07-30T02:01:14;10.50;;;1.67;;
70052;SDS011;57398;52.032;4.376;2023-07-30T02:04:03;8.20;;;1.57;;
70052;SDS011;57398;52.032;4.376;2023-07-30T02:06:51;10.48;;;1.90;;
70052;SDS011;57398;52.032;4.376;2023-07-30T02:09:40;9.73;;;1.50;;
70052;SDS011;57398;52.032;4.376;2023-07-30T02:12:29;9.10;;;2.10;;
70052;SDS011;57398;52.032;4.376;2023-07-30T02:15:18;9.70;;;1.52;;
70052;SDS011;57398;52.032;4.376;2023-07-30T02:18:06;8.20;;;1.50;;
70052;SDS011;57398;52.032;4.376;2023-07-30T02:20:57;9.23;;;1.33;;
70052;SDS011;57398;52.032;4.376;2023-07-30T02:23:45;9.82;;;1.40;;
70052;SDS011;57398;52.032;4.376;2023-07-30T02:26:33;6.70;;;1.40;;
70052;SDS011;57398;52.032;4.376;2023-07-30T02:29:23;5.40;;;1.77;;
70052;SDS011;57398;52.032;4.376;2023-07-30T02:32:11;6.20;;;1.43;;
70052;SDS011;57398;52.032;4.376;2023-07-30T02:35:00;9.85;;;1.95;;
70052;SDS011;57398;52.032;4.376;2023-07-30T02:37:48;7.57;;;1.70;;
70052;SDS011;57398;52.032;4.376;2023-07-30T02:40:36;5.97;;;1.40;;
70052;SDS011;57398;52.032;4.376;2023-07-30T02:43:24;6.72;;;1.60;;
70052;SDS011;57398;52.032;4.376;2023-07-30T02:46:14;10.30;;;1.43;;
70052;SDS011;57398;52.032;4.376;2023-07-30T02:49:02;6.45;;;1.80;;
70052;SDS011;57398;52.032;4.376;2023-07-30T02:51:50;6.43;;;1.25;;
70052;SDS011;57398;52.032;4.376;2023-07-30T02:54:39;8.07;;;1.65;;
70052;SDS011;57398;52.032;4.376;2023-07-30T02:57:27;10.07;;;1.80;;
70052;SDS011;57398;52.032;4.376;2023-07-30T03:00:15;7.90;;;1.40;;
70052;SDS011;57398;52.032;4.376;2023-07-30T03:03:05;6.22;;;1.23;;
70052;SDS011;57398;52.032;4.376;2023-07-30T03:05:54;5.95;;;1.73;;
70052;SDS011;57398;52.032;4.376;2023-07-30T03:08:42;5.65;;;1.38;;
70052;SDS011;57398;52.032;4.376;2023-07-30T03:11:33;5.40;;;1.25;;
70052;SDS011;57398;52.032;4.376;2023-07-30T03:14:21;5.57;;;1.40;;
70052;SDS011;57398;52.032;4.376;2023-07-30T03:17:10;9.30;;;1.35;;
70052;SDS011;57398;52.032;4.376;2023-07-30T03:19:59;6.22;;;1.35;;
70052;SDS011;57398;52.032;4.376;2023-07-30T03:22:47;5.03;;;1.13;;
70052;SDS011;57398;52.032;4.376;2023-07-30T03:25:36;6.60;;;1.50;;
70052;SDS011;57398;52.032;4.376;2023-07-30T03:28:24;6.43;;;1.27;;
70052;SDS011;57398;52.032;4.376;2023-07-30T03:31:12;6.50;;;1.50;;
70052;SDS011;57398;52.032;4.376;2023-07-30T03:34:00;5.97;;;1.15;;
70052;SDS011;57398;52.032;4.376;2023-07-30T03:36:50;5.35;;;1.00;;
70052;SDS011;57398;52.032;4.376;2023-07-30T03:39:38;4.80;;;1.10;;
70052;SDS011;57398;52.032;4.376;2023-07-30T03:42:26;5.03;;;1.00;;
70052;SDS011;57398;52.032;4.376;2023-07-30T03:45:15;5.43;;;1.27;;
70052;SDS011;57398;52.032;4.376;2023-07-30T03:48:03;7.60;;;1.40;;
70052;SDS011;57398;52.032;4.376;2023-07-30T03:50:52;3.88;;;1.00;;
70052;SDS011;57398;52.032;4.376;2023-07-30T03:53:42;4.53;;;1.20;;
70052;SDS011;57398;52.032;4.376;2023-07-30T03:56:30;9.10;;;1.20;;
70052;SDS011;57398;52.032;4.376;2023-07-30T03:59:18;3.35;;;1.10;;
70052;SDS011;57398;52.032;4.376;2023-07-30T04:02:07;3.72;;;1.02;;
70052;SDS011;57398;52.032;4.376;2023-07-30T04:04:55;3.50;;;1.15;;
70052;SDS011;57398;52.032;4.376;2023-07-30T04:07:43;4.03;;;1.10;;
70052;SDS011;57398;52.032;4.376;2023-07-30T04:10:32;4.40;;;1.20;;
70052;SDS011;57398;52.032;4.376;2023-07-30T04:13:21;3.47;;;1.02;;
70052;SDS011;57398;52.032;4.376;2023-07-30T04:16:09;4.43;;;0.90;;
70052;SDS011;57398;52.032;4.376;2023-07-30T04:18:57;3.38;;;0.90;;
70052;SDS011;57398;52.032;4.376;2023-07-30T04:21:45;6.13;;;0.93;;
70052;SDS011;57398;52.032;4.376;2023-07-30T04:24:33;3.70;;;1.00;;
70052;SDS011;57398;52.032;4.376;2023-07-30T04:27:23;3.95;;;1.00;;
70052;SDS011;57398;52.032;4.376;2023-07-30T04:30:16;5.93;;;1.10;;
70052;SDS011;57398;52.032;4.376;2023-07-30T04:33:04;6.97;;;1.20;;
70052;SDS011;57398;52.032;4.376;2023-07-30T04:35:52;4.07;;;1.00;;
70052;SDS011;57398;52.032;4.376;2023-07-30T04:38:40;3.60;;;0.87;;
70052;SDS011;57398;52.032;4.376;2023-07-30T04:41:28;7.38;;;1.33;;
70052;SDS011;57398;52.032;4.376;2023-07-30T04:44:18;4.40;;;0.90;;
70052;SDS011;57398;52.032;4.376;2023-07-30T04:47:06;5.60;;;1.00;;
70052;SDS011;57398;52.032;4.376;2023-07-30T04:49:54;4.60;;;1.15;;
70052;SDS011;57398;52.032;4.376;2023-07-30T04:52:42;4.27;;;1.00;;
70052;SDS011;57398;52.032;4.376;2023-07-30T04:55:30;3.63;;;0.88;;
70052;SDS011;57398;52.032;4.376;2023-07-30T04:58:20;4.10;;;1.02;;
70052;SDS011;57398;52.032;4.376;2023-07-30T05:01:10;3.58;;;1.00;;
70052;SDS011;57398;52.032;4.376;2023-07-30T05:03:58;5.35;;;0.80;;
70052;SDS011;57398;52.032;4.376;2023-07-30T05:06:46;7.30;;;1.17;;
70052;SDS011;57398;52.032;4.376;2023-07-30T05:09:35;3.25;;;0.80;;
70052;SDS011;57398;52.032;4.376;2023-07-30T05:12:24;3.65;;;0.90;;
70052;SDS011;57398;52.032;4.376;2023-07-30T05:15:12;5.05;;;0.82;;
70052;SDS011;57398;52.032;4.376;2023-07-30T05:18:01;4.15;;;0.98;;
70052;SDS011;57398;52.032;4.376;2023-07-30T05:20:50;5.93;;;1.13;;
70052;SDS011;57398;52.032;4.376;2023-07-30T05:23:38;6.00;;;0.95;;
70052;SDS011;57398;52.032;4.376;2023-07-30T05:26:26;4.72;;;1.20;;
70052;SDS011;57398;52.032;4.376;2023-07-30T05:29:14;5.63;;;1.17;;
70052;SDS011;57398;52.032;4.376;2023-07-30T05:32:03;5.63;;;1.05;;
70052;SDS011;57398;52.032;4.376;2023-07-30T05:34:53;7.37;;;1.20;;
70052;SDS011;57398;52.032;4.376;2023-07-30T05:37:41;4.82;;;1.00;;
70052;SDS011;57398;52.032;4.376;2023-07-30T05:40:29;5.95;;;1.40;;
70052;SDS011;57398;52.032;4.376;2023-07-30T05:43:17;4.82;;;1.10;;
70052;SDS011;57398;52.032;4.376;2023-07-30T05:46:06;6.03;;;1.20;;
70052;SDS011;57398;52.032;4.376;2023-07-30T05:48:54;7.17;;;1.33;;
70052;SDS011;57398;52.032;4.376;2023-07-30T05:51:44;3.80;;;1.10;;
70052;SDS011;57398;52.032;4.376;2023-07-30T05:54:32;5.95;;;1.10;;
70052;SDS011;57398;52.032;4.376;2023-07-30T05:57:20;5.28;;;1.10;;
70052;SDS011;57398;52.032;4.376;2023-07-30T06:00:09;5.30;;;1.05;;
70052;SDS011;57398;52.032;4.376;2023-07-30T06:02:57;7.00;;;1.42;;
70052;SDS011;57398;52.032;4.376;2023-07-30T06:05:45;6.97;;;1.40;;
70052;SDS011;57398;52.032;4.376;2023-07-30T06:08:35;7.40;;;1.45;;
70052;SDS011;57398;52.032;4.376;2023-07-30T06:11:23;7.95;;;1.35;;
70052;SDS011;57398;52.032;4.376;2023-07-30T06:14:11;7.55;;;1.50;;
70052;SDS011;57398;52.032;4.376;2023-07-30T06:16:59;6.43;;;1.17;;
70052;SDS011;57398;52.032;4.376;2023-07-30T06:19:47;7.10;;;1.40;;
70052;SDS011;57398;52.032;4.376;2023-07-30T06:22:36;9.13;;;1.40;;
70052;SDS011;57398;52.032;4.376;2023-07-30T06:25:25;3.88;;;1.25;;
70052;SDS011;57398;52.032;4.376;2023-07-30T06:28:13;8.35;;;1.38;;
70052;SDS011;57398;52.032;4.376;2023-07-30T06:31:01;6.68;;;1.20;;
70052;SDS011;57398;52.032;4.376;2023-07-30T06:33:50;9.17;;;1.30;;
70052;SDS011;57398;52.032;4.376;2023-07-30T06:36:38;6.13;;;1.42;;
70052;SDS011;57398;52.032;4.376;2023-07-30T06:39:26;7.35;;;1.17;;
70052;SDS011;57398;52.032;4.376;2023-07-30T06:42:16;4.93;;;1.00;;
70052;SDS011;57398;52.032;4.376;2023-07-30T06:45:04;4.07;;;0.80;;
70052;SDS011;57398;52.032;4.376;2023-07-30T06:47:53;5.83;;;1.10;;
70052;SDS011;57398;52.032;4.376;2023-07-30T06:50:42;6.55;;;0.90;;
70052;SDS011;57398;52.032;4.376;2023-07-30T06:53:30;3.85;;;0.95;;
70052;SDS011;57398;52.032;4.376;2023-07-30T06:56:18;4.60;;;1.00;;
70052;SDS011;57398;52.032;4.376;2023-07-30T06:59:08;5.68;;;1.02;;
70052;SDS011;57398;52.032;4.376;2023-07-30T07:01:56;6.13;;;0.97;;
70052;SDS011;57398;52.032;4.376;2023-07-30T07:04:46;4.97;;;0.90;;
70052;SDS011;57398;52.032;4.376;2023-07-30T07:07:34;8.30;;;1.00;;
70052;SDS011;57398;52.032;4.376;2023-07-30T07:10:22;5.75;;;1.08;;
70052;SDS011;57398;52.032;4.376;2023-07-30T07:13:11;7.80;;;1.17;;
70052;SDS011;57398;52.032;4.376;2023-07-30T07:16:03;5.37;;;1.03;;
70052;SDS011;57398;52.032;4.376;2023-07-30T07:18:54;3.33;;;0.80;;
70052;SDS011;57398;52.032;4.376;2023-07-30T07:21:42;3.22;;;0.93;;
70052;SDS011;57398;52.032;4.376;2023-07-30T07:24:32;5.85;;;1.35;;
70052;SDS011;57398;52.032;4.376;2023-07-30T07:27:20;5.50;;;1.20;;
70052;SDS011;57398;52.032;4.376;2023-07-30T07:30:10;3.60;;;1.03;;
70052;SDS011;57398;52.032;4.376;2023-07-30T07:33:00;5.13;;;1.00;;
70052;SDS011;57398;52.032;4.376;2023-07-30T07:35:48;5.28;;;1.35;;
70052;SDS011;57398;52.032;4.376;2023-07-30T07:38:36;4.38;;;1.23;;
70052;SDS011;57398;52.032;4.376;2023-07-30T07:41:24;7.22;;;1.05;;
70052;SDS011;57398;52.032;4.376;2023-07-30T07:44:14;7.57;;;1.27;;
70052;SDS011;57398;52.032;4.376;2023-07-30T07:47:02;8.25;;;1.35;;
70052;SDS011;57398;52.032;4.376;2023-07-30T07:49:52;5.97;;;1.27;;
70052;SDS011;57398;52.032;4.376;2023-07-30T07:52:40;7.13;;;1.30;;
70052;SDS011;57398;52.032;4.376;2023-07-30T07:55:29;3.90;;;0.80;;
70052;SDS011;57398;52.032;4.376;2023-07-30T07:58:17;3.03;;;0.60;;
70052;SDS011;57398;52.032;4.376;2023-07-30T08:01:05;3.83;;;0.98;;
70052;SDS011;57398;52.032;4.376;2023-07-30T08:03:53;5.90;;;1.05;;
70052;SDS011;57398;52.032;4.376;2023-07-30T08:06:43;5.72;;;1.20;;
70052;SDS011;57398;52.032;4.376;2023-07-30T08:09:31;5.20;;;1.10;;
70052;SDS011;57398;52.032;4.376;2023-07-30T08:12:19;7.43;;;1.20;;
70052;SDS011;57398;52.032;4.376;2023-07-30T08:15:08;4.82;;;1.10;;
70052;SDS011;57398;52.032;4.376;2023-07-30T08:17:57;5.13;;;0.95;;
70052;SDS011;57398;52.032;4.376;2023-07-30T08:20:45;6.28;;;1.10;;
70052;SDS011;57398;52.032;4.376;2023-07-30T08:23:35;6.95;;;1.10;;
70052;SDS011;57398;52.032;4.376;2023-07-30T08:26:23;2.53;;;0.70;;
70052;SDS011;57398;52.032;4.376;2023-07-30T08:29:11;6.75;;;0.98;;
70052;SDS011;57398;52.032;4.376;2023-07-30T08:32:00;3.40;;;0.82;;
70052;SDS011;57398;52.032;4.376;2023-07-30T08:34:48;4.72;;;1.05;;
70052;SDS011;57398;52.032;4.376;2023-07-30T08:37:36;6.20;;;1.20;;
70052;SDS011;57398;52.032;4.376;2023-07-30T08:40:26;3.20;;;0.73;;
70052;SDS011;57398;52.032;4.376;2023-07-30T08:43:14;4.97;;;1.13;;
70052;SDS011;57398;52.032;4.376;2023-07-30T08:46:03;6.45;;;1.08;;
70052;SDS011;57398;52.032;4.376;2023-07-30T08:48:51;4.10;;;1.02;;
70052;SDS011;57398;52.032;4.376;2023-07-30T08:51:40;3.20;;;0.90;;
70052;SDS011;57398;52.032;4.376;2023-07-30T08:54:30;4.33;;;1.00;;
70052;SDS011;57398;52.032;4.376;2023-07-30T08:57:20;4.70;;;1.17;;
70052;SDS011;57398;52.032;4.376;2023-07-30T09:00:09;5.15;;;0.88;;
70052;SDS011;57398;52.032;4.376;2023-07-30T09:02:59;5.25;;;1.20;;
70052;SDS011;57398;52.032;4.376;2023-07-30T09:05:49;4.78;;;0.88;;
70052;SDS011;57398;52.032;4.376;2023-07-30T09:08:37;4.97;;;0.77;;
70052;SDS011;57398;52.032;4.376;2023-07-30T09:11:26;5.47;;;0.95;;
70052;SDS011;57398;52.032;4.376;2023-07-30T09:14:15;4.25;;;0.85;;
70052;SDS011;57398;52.032;4.376;2023-07-30T09:17:07;3.42;;;0.80;;
70052;SDS011;57398;52.032;4.376;2023-07-30T09:19:55;4.10;;;0.88;;
70052;SDS011;57398;52.032;4.376;2023-07-30T09:22:45;4.50;;;1.03;;
70052;SDS011;57398;52.032;4.376;2023-07-30T09:25:35;6.53;;;0.90;;
70052;SDS011;57398;52.032;4.376;2023-07-30T09:28:27;4.10;;;0.90;;
70052;SDS011;57398;52.032;4.376;2023-07-30T09:31:20;4.72;;;0.90;;
70052;SDS011;57398;52.032;4.376;2023-07-30T09:34:08;5.40;;;0.95;;
70052;SDS011;57398;52.032;4.376;2023-07-30T09:36:57;5.93;;;1.17;;
70052;SDS011;57398;52.032;4.376;2023-07-30T09:39:47;3.75;;;0.90;;
70052;SDS011;57398;52.032;4.376;2023-07-30T09:42:36;5.35;;;1.27;;
70052;SDS011;57398;52.032;4.376;2023-07-30T09:45:26;7.47;;;1.10;;
70052;SDS011;57398;52.032;4.376;2023-07-30T09:48:16;5.93;;;1.27;;
70052;SDS011;57398;52.032;4.376;2023-07-30T09:51:04;8.40;;;1.00;;
70052;SDS011;57398;52.032;4.376;2023-07-30T09:53:53;6.93;;;1.10;;
70052;SDS011;57398;52.032;4.376;2023-07-30T09:56:42;5.00;;;0.90;;
70052;SDS011;57398;52.032;4.376;2023-07-30T09:59:33;9.75;;;1.00;;
70052;SDS011;57398;52.032;4.376;2023-07-30T10:02:23;6.30;;;1.08;;
70052;SDS011;57398;52.032;4.376;2023-07-30T10:05:15;3.63;;;0.70;;
70052;SDS011;57398;52.032;4.376;2023-07-30T10:08:05;3.72;;;0.93;;
70052;SDS011;57398;52.032;4.376;2023-07-30T10:10:59;5.90;;;1.13;;
70052;SDS011;57398;52.032;4.376;2023-07-30T10:13:51;5.82;;;1.00;;
70052;SDS011;57398;52.032;4.376;2023-07-30T10:16:39;5.55;;;0.93;;
70052;SDS011;57398;52.032;4.376;2023-07-30T10:19:38;7.10;;;1.20;;
70052;SDS011;57398;52.032;4.376;2023-07-30T10:22:27;2.88;;;0.70;;
70052;SDS011;57398;52.032;4.376;2023-07-30T10:25:16;6.63;;;0.88;;
70052;SDS011;57398;52.032;4.376;2023-07-30T10:28:07;6.03;;;0.85;;
70052;SDS011;57398;52.032;4.376;2023-07-30T10:30:59;4.45;;;0.90;;
70052;SDS011;57398;52.032;4.376;2023-07-30T10:33:49;4.83;;;0.90;;
70052;SDS011;57398;52.032;4.376;2023-07-30T10:36:43;4.40;;;0.90;;
70052;SDS011;57398;52.032;4.376;2023-07-30T10:39:35;3.13;;;0.75;;
70052;SDS011;57398;52.032;4.376;2023-07-30T10:42:23;3.45;;;0.90;;
70052;SDS011;57398;52.032;4.376;2023-07-30T10:45:11;3.97;;;1.00;;
70052;SDS011;57398;52.032;4.376;2023-07-30T10:48:03;4.33;;;0.80;;
70052;SDS011;57398;52.032;4.376;2023-07-30T10:50:52;5.72;;;0.98;;
70052;SDS011;57398;52.032;4.376;2023-07-30T10:53:41;3.10;;;0.70;;
70052;SDS011;57398;52.032;4.376;2023-07-30T10:56:31;4.85;;;1.02;;
70052;SDS011;57398;52.032;4.376;2023-07-30T10:59:22;4.55;;;0.75;;
70052;SDS011;57398;52.032;4.376;2023-07-30T11:02:11;3.73;;;0.80;;
70052;SDS011;57398;52.032;4.376;2023-07-30T11:05:10;3.72;;;1.00;;
70052;SDS011;57398;52.032;4.376;2023-07-30T11:07:59;3.75;;;0.88;;
70052;SDS011;57398;52.032;4.376;2023-07-30T11:10:47;3.35;;;0.60;;
70052;SDS011;57398;52.032;4.376;2023-07-30T11:13:37;4.38;;;0.70;;
70052;SDS011;57398;52.032;4.376;2023-07-30T11:16:26;3.23;;;0.70;;
70052;SDS011;57398;52.032;4.376;2023-07-30T11:19:14;4.95;;;1.13;;
70052;SDS011;57398;52.032;4.376;2023-07-30T11:22:02;4.28;;;1.00;;
70052;SDS011;57398;52.032;4.376;2023-07-30T11:24:53;5.28;;;0.98;;
70052;SDS011;57398;52.032;4.376;2023-07-30T11:27:45;5.05;;;0.90;;
70052;SDS011;57398;52.032;4.376;2023-07-30T11:30:35;4.10;;;0.90;;
70052;SDS011;57398;52.032;4.376;2023-07-30T11:33:24;3.97;;;0.73;;
70052;SDS011;57398;52.032;4.376;2023-07-30T11:36:14;5.70;;;0.80;;
70052;SDS011;57398;52.032;4.376;2023-07-30T11:39:03;5.45;;;0.90;;
70052;SDS011;57398;52.032;4.376;2023-07-30T11:41:52;5.13;;;0.75;;
70052;SDS011;57398;52.032;4.376;2023-07-30T11:44:41;4.90;;;1.00;;
70052;SDS011;57398;52.032;4.376;2023-07-30T11:47:31;3.72;;;0.60;;
70052;SDS011;57398;52.032;4.376;2023-07-30T11:50:20;4.40;;;0.70;;
70052;SDS011;57398;52.032;4.376;2023-07-30T11:53:09;3.38;;;0.80;;
70052;SDS011;57398;52.032;4.376;2023-07-30T11:55:57;4.30;;;1.02;;
70052;SDS011;57398;52.032;4.376;2023-07-30T11:58:45;2.83;;;0.60;;
70052;SDS011;57398;52.032;4.376;2023-07-30T12:01:35;4.95;;;0.80;;
70052;SDS011;57398;52.032;4.376;2023-07-30T12:04:28;3.50;;;0.60;;
70052;SDS011;57398;52.032;4.376;2023-07-30T12:07:21;3.92;;;0.80;;
70052;SDS011;57398;52.032;4.376;2023-07-30T12:10:11;4.70;;;0.98;;
70052;SDS011;57398;52.032;4.376;2023-07-30T12:13:02;4.00;;;0.60;;
70052;SDS011;57398;52.032;4.376;2023-07-30T12:15:58;5.78;;;1.13;;
70052;SDS011;57398;52.032;4.376;2023-07-30T12:18:47;2.95;;;0.80;;
70052;SDS011;57398;52.032;4.376;2023-07-30T12:21:36;2.78;;;0.70;;
70052;SDS011;57398;52.032;4.376;2023-07-30T12:24:25;3.88;;;0.60;;
70052;SDS011;57398;52.032;4.376;2023-07-30T12:27:14;2.80;;;0.63;;
70052;SDS011;57398;52.032;4.376;2023-07-30T12:30:02;4.47;;;0.80;;
70052;SDS011;57398;52.032;4.376;2023-07-30T12:32:51;5.18;;;0.80;;
70052;SDS011;57398;52.032;4.376;2023-07-30T12:35:39;6.80;;;0.90;;
70052;SDS011;57398;52.032;4.376;2023-07-30T12:38:29;2.90;;;0.60;;
70052;SDS011;57398;52.032;4.376;2023-07-30T12:41:17;5.47;;;0.90;;
70052;SDS011;57398;52.032;4.376;2023-07-30T12:44:13;4.17;;;0.90;;
70052;SDS011;57398;52.032;4.376;2023-07-30T12:47:02;3.28;;;0.70;;
70052;SDS011;57398;52.032;4.376;2023-07-30T12:49:50;2.65;;;0.60;;
70052;SDS011;57398;52.032;4.376;2023-07-30T12:52:38;3.50;;;0.68;;
70052;SDS011;57398;52.032;4.376;2023-07-30T12:55:28;4.18;;;0.90;;
70052;SDS011;57398;52.032;4.376;2023-07-30T12:58:16;5.03;;;0.90;;
70052;SDS011;57398;52.032;4.376;2023-07-30T13:01:04;5.50;;;0.80;;
70052;SDS011;57398;52.032;4.376;2023-07-30T13:03:52;4.47;;;1.10;;
70052;SDS011;57398;52.032;4.376;2023-07-30T13:06:41;5.40;;;0.90;;
70052;SDS011;57398;52.032;4.376;2023-07-30T13:09:30;4.35;;;0.80;;
70052;SDS011;57398;52.032;4.376;2023-07-30T13:12:20;3.17;;;0.73;;
70052;SDS011;57398;52.032;4.376;2023-07-30T13:15:08;7.18;;;1.08;;
70052;SDS011;57398;52.032;4.376;2023-07-30T13:17:57;7.05;;;0.90;;
70052;SDS011;57398;52.032;4.376;2023-07-30T13:20:46;5.35;;;0.82;;
70052;SDS011;57398;52.032;4.376;2023-07-30T13:23:34;7.00;;;0.82;;
70052;SDS011;57398;52.032;4.376;2023-07-30T13:26:22;2.97;;;0.80;;
70052;SDS011;57398;52.032;4.376;2023-07-30T13:29:11;5.78;;;0.85;;
70052;SDS011;57398;52.032;4.376;2023-07-30T13:31:59;3.80;;;1.00;;
70052;SDS011;57398;52.032;4.376;2023-07-30T13:34:47;7.32;;;0.80;;
70052;SDS011;57398;52.032;4.376;2023-07-30T13:37:36;5.40;;;0.98;;
70052;SDS011;57398;52.032;4.376;2023-07-30T13:40:24;6.80;;;1.27;;
70052;SDS011;57398;52.032;4.376;2023-07-30T13:43:12;6.18;;;1.20;;
70052;SDS011;57398;52.032;4.376;2023-07-30T13:46:02;5.50;;;0.70;;
70052;SDS011;57398;52.032;4.376;2023-07-30T13:48:50;7.72;;;1.25;;
70052;SDS011;57398;52.032;4.376;2023-07-30T13:51:38;5.97;;;1.08;;
70052;SDS011;57398;52.032;4.376;2023-07-30T13:54:27;4.77;;;1.13;;
70052;SDS011;57398;52.032;4.376;2023-07-30T13:57:21;5.45;;;0.70;;
70052;SDS011;57398;52.032;4.376;2023-07-30T14:00:11;5.97;;;1.10;;
70052;SDS011;57398;52.032;4.376;2023-07-30T14:03:01;5.80;;;1.00;;
70052;SDS011;57398;52.032;4.376;2023-07-30T14:05:50;8.98;;;1.30;;
70052;SDS011;57398;52.032;4.376;2023-07-30T14:08:38;5.83;;;1.03;;
70052;SDS011;57398;52.032;4.376;2023-07-30T14:11:26;7.60;;;1.20;;
70052;SDS011;57398;52.032;4.376;2023-07-30T14:14:15;6.93;;;1.55;;
70052;SDS011;57398;52.032;4.376;2023-07-30T14:17:03;6.07;;;1.20;;
70052;SDS011;57398;52.032;4.376;2023-07-30T14:19:54;8.45;;;1.67;;
70052;SDS011;57398;52.032;4.376;2023-07-30T14:22:43;9.47;;;1.43;;
70052;SDS011;57398;52.032;4.376;2023-07-30T14:25:31;8.90;;;1.40;;
70052;SDS011;57398;52.032;4.376;2023-07-30T14:28:20;8.57;;;1.23;;
70052;SDS011;57398;52.032;4.376;2023-07-30T14:31:08;7.20;;;1.30;;
70052;SDS011;57398;52.032;4.376;2023-07-30T14:33:56;8.73;;;1.20;;
70052;SDS011;57398;52.032;4.376;2023-07-30T14:36:46;6.83;;;1.03;;
70052;SDS011;57398;52.032;4.376;2023-07-30T14:39:34;9.02;;;1.55;;
70052;SDS011;57398;52.032;4.376;2023-07-30T14:42:22;6.75;;;1.30;;
70052;SDS011;57398;52.032;4.376;2023-07-30T14:45:11;9.93;;;1.42;;
70052;SDS011;57398;52.032;4.376;2023-07-30T14:47:59;6.68;;;1.38;;
70052;SDS011;57398;52.032;4.376;2023-07-30T14:50:47;9.03;;;1.43;;
70052;SDS011;57398;52.032;4.376;2023-07-30T14:53:37;8.23;;;1.50;;
70052;SDS011;57398;52.032;4.376;2023-07-30T14:56:25;8.50;;;1.60;;
70052;SDS011;57398;52.032;4.376;2023-07-30T14:59:15;5.65;;;1.58;;
70052;SDS011;57398;52.032;4.376;2023-07-30T15:02:03;5.80;;;1.40;;
70052;SDS011;57398;52.032;4.376;2023-07-30T15:04:51;9.90;;;1.93;;
70052;SDS011;57398;52.032;4.376;2023-07-30T15:07:40;9.82;;;1.65;;
70052;SDS011;57398;52.032;4.376;2023-07-30T15:10:29;8.52;;;1.60;;
70052;SDS011;57398;52.032;4.376;2023-07-30T15:13:17;9.07;;;1.35;;
70052;SDS011;57398;52.032;4.376;2023-07-30T15:16:06;9.93;;;1.65;;
70052;SDS011;57398;52.032;4.376;2023-07-30T15:18:54;10.07;;;1.57;;
70052;SDS011;57398;52.032;4.376;2023-07-30T15:21:45;6.45;;;1.40;;
70052;SDS011;57398;52.032;4.376;2023-07-30T15:24:33;9.23;;;1.67;;
70052;SDS011;57398;52.032;4.376;2023-07-30T15:27:26;9.05;;;1.65;;
70052;SDS011;57398;52.032;4.376;2023-07-30T15:30:14;8.48;;;1.75;;
70052;SDS011;57398;52.032;4.376;2023-07-30T15:33:02;10.60;;;1.67;;
70052;SDS011;57398;52.032;4.376;2023-07-30T15:35:50;8.52;;;1.67;;
70052;SDS011;57398;52.032;4.376;2023-07-30T15:38:39;10.63;;;1.85;;
70052;SDS011;57398;52.032;4.376;2023-07-30T15:41:28;8.65;;;1.70;;
70052;SDS011;57398;52.032;4.376;2023-07-30T15:44:18;7.85;;;1.63;;
70052;SDS011;57398;52.032;4.376;2023-07-30T15:47:06;6.97;;;1.58;;
70052;SDS011;57398;52.032;4.376;2023-07-30T15:49:55;6.37;;;1.27;;
70052;SDS011;57398;52.032;4.376;2023-07-30T15:52:46;9.10;;;1.40;;
70052;SDS011;57398;52.032;4.376;2023-07-30T15:55:35;5.53;;;1.20;;
70052;SDS011;57398;52.032;4.376;2023-07-30T15:58:23;4.38;;;0.80;;
70052;SDS011;57398;52.032;4.376;2023-07-30T16:01:12;5.63;;;0.73;;
70052;SDS011;57398;52.032;4.376;2023-07-30T16:04:01;4.27;;;0.70;;
70052;SDS011;57398;52.032;4.376;2023-07-30T16:06:49;4.88;;;0.88;;
70052;SDS011;57398;52.032;4.376;2023-07-30T16:09:37;2.97;;;0.80;;
70052;SDS011;57398;52.032;4.376;2023-07-30T16:12:26;3.85;;;0.80;;
70052;SDS011;57398;52.032;4.376;2023-07-30T16:15:14;4.68;;;0.80;;
70052;SDS011;57398;52.032;4.376;2023-07-30T16:18:03;4.70;;;1.03;;
70052;SDS011;57398;52.032;4.376;2023-07-30T16:20:59;6.03;;;1.05;;
70052;SDS011;57398;52.032;4.376;2023-07-30T16:23:48;5.43;;;0.80;;
70052;SDS011;57398;52.032;4.376;2023-07-30T16:26:36;7.78;;;1.25;;
70052;SDS011;57398;52.032;4.376;2023-07-30T16:29:24;4.18;;;1.15;;
70052;SDS011;57398;52.032;4.376;2023-07-30T16:32:13;3.90;;;1.17;;
70052;SDS011;57398;52.032;4.376;2023-07-30T16:35:02;4.47;;;1.30;;
70052;SDS011;57398;52.032;4.376;2023-07-30T16:37:52;5.22;;;1.17;;
70052;SDS011;57398;52.032;4.376;2023-07-30T16:40:40;5.25;;;1.17;;
70052;SDS011;57398;52.032;4.376;2023-07-30T16:43:29;4.50;;;1.30;;
70052;SDS011;57398;52.032;4.376;2023-07-30T16:46:17;5.67;;;1.30;;
70052;SDS011;57398;52.032;4.376;2023-07-30T16:49:05;5.25;;;1.27;;
70052;SDS011;57398;52.032;4.376;2023-07-30T16:51:55;6.00;;;1.45;;
70052;SDS011;57398;52.032;4.376;2023-07-30T16:54:43;5.72;;;1.50;;
70052;SDS011;57398;52.032;4.376;2023-07-30T16:57:32;8.65;;;1.60;;
70052;SDS011;57398;52.032;4.376;2023-07-30T17:00:21;8.53;;;1.53;;